sensor_id;sensor_type;location;lat;lon;timestamp;pressure;altitude;pressure_sealevel;temperature;humidity
53715;BME280;39608;55.630;37.864;2023-02-02T00:04:17;98495.56;;;0.25;67.52
53715;BME280;39608;55.630;37.864;2023-02-02T00:09:19;98495.25;;;0.22;67.52
53715;BME280;39608;55.630;37.864;2023-02-02T00:14:22;98500.56;;;0.22;67.29
53715;BME280;39608;55.630;37.864;2023-02-02T00:19:27;98481.84;;;0.16;67.24
53715;BME280;39608;55.630;37.864;2023-02-02T00:24:31;98491.56;;;0.28;67.58
53715;BME280;39608;55.630;37.864;2023-02-02T00:29:33;98501.97;;;0.29;67.21
53715;BME280;39608;55.630;37.864;2023-02-02T00:34:36;98491.88;;;0.31;67.02
53715;BME280;39608;55.630;37.864;2023-02-02T00:39:38;98492.13;;;0.30;67.07
53715;BME280;39608;55.630;37.864;2023-02-02T00:44:40;98490.50;;;0.29;67.28
53715;BME280;39608;55.630;37.864;2023-02-02T00:50:01;98489.75;;;0.33;67.01
53715;BME280;39608;55.630;37.864;2023-02-02T00:55:04;98475.06;;;0.31;67.49
53715;BME280;39608;55.630;37.864;2023-02-02T01:00:10;98492.66;;;0.32;67.56
53715;BME280;39608;55.630;37.864;2023-02-02T01:05:14;98492.19;;;0.35;67.09
53715;BME280;39608;55.630;37.864;2023-02-02T01:10:17;98479.84;;;0.29;67.11
53715;BME280;39608;55.630;37.864;2023-02-02T01:15:19;98492.19;;;0.35;66.94
53715;BME280;39608;55.630;37.864;2023-02-02T01:20:23;98494.53;;;0.31;67.13
53715;BME280;39608;55.630;37.864;2023-02-02T01:25:25;98491.53;;;0.23;67.42
53715;BME280;39608;55.630;37.864;2023-02-02T01:30:27;98485.09;;;0.19;67.20
53715;BME280;39608;55.630;37.864;2023-02-02T01:35:30;98476.00;;;0.14;67.48
53715;BME280;39608;55.630;37.864;2023-02-02T01:40:32;98476.50;;;0.11;67.29
53715;BME280;39608;55.630;37.864;2023-02-02T01:45:35;98470.09;;;0.12;67.28
53715;BME280;39608;55.630;37.864;2023-02-02T01:50:38;98479.44;;;0.15;66.99
53715;BME280;39608;55.630;37.864;2023-02-02T01:55:41;98470.91;;;0.13;67.25
53715;BME280;39608;55.630;37.864;2023-02-02T02:00:43;98475.72;;;0.16;67.00
53715;BME280;39608;55.630;37.864;2023-02-02T02:05:48;98471.25;;;0.22;67.19
53715;BME280;39608;55.630;37.864;2023-02-02T02:10:52;98474.44;;;0.19;66.89
53715;BME280;39608;55.630;37.864;2023-02-02T02:16:00;98477.19;;;0.29;66.99
53715;BME280;39608;55.630;37.864;2023-02-02T02:21:36;98477.50;;;0.32;66.87
53715;BME280;39608;55.630;37.864;2023-02-02T02:27:10;98479.84;;;0.29;66.69
53715;BME280;39608;55.630;37.864;2023-02-02T02:32:26;98482.25;;;0.30;66.78
53715;BME280;39608;55.630;37.864;2023-02-02T02:37:37;98489.47;;;0.30;66.62
53715;BME280;39608;55.630;37.864;2023-02-02T02:42:44;98477.88;;;0.19;66.80
53715;BME280;39608;55.630;37.864;2023-02-02T02:47:49;98487.00;;;0.23;67.01
53715;BME280;39608;55.630;37.864;2023-02-02T02:52:56;98488.88;;;0.23;67.26
53715;BME280;39608;55.630;37.864;2023-02-02T02:58:06;98483.28;;;0.24;67.00
53715;BME280;39608;55.630;37.864;2023-02-02T03:03:19;98486.19;;;0.23;66.79
53715;BME280;39608;55.630;37.864;2023-02-02T03:08:30;98482.72;;;0.22;66.91
53715;BME280;39608;55.630;37.864;2023-02-02T03:13:33;98488.88;;;0.23;67.15
53715;BME280;39608;55.630;37.864;2023-02-02T03:18:37;98485.75;;;0.31;66.77
53715;BME280;39608;55.630;37.864;2023-02-02T03:23:40;98492.06;;;0.25;67.21
53715;BME280;39608;55.630;37.864;2023-02-02T03:28:42;98488.88;;;0.23;66.86
53715;BME280;39608;55.630;37.864;2023-02-02T03:33:45;98497.16;;;0.26;66.64
53715;BME280;39608;55.630;37.864;2023-02-02T03:38:47;98496.88;;;0.23;66.93
53715;BME280;39608;55.630;37.864;2023-02-02T03:43:49;98504.28;;;0.21;67.13
53715;BME280;39608;55.630;37.864;2023-02-02T03:48:53;98500.31;;;0.23;66.99
53715;BME280;39608;55.630;37.864;2023-02-02T03:53:55;98495.50;;;0.20;67.08
53715;BME280;39608;55.630;37.864;2023-02-02T03:58:57;98506.75;;;0.27;67.05
53715;BME280;39608;55.630;37.864;2023-02-02T04:04:00;98513.97;;;0.27;66.80
53715;BME280;39608;55.630;37.864;2023-02-02T04:09:02;98502.44;;;0.21;66.89
53715;BME280;39608;55.630;37.864;2023-02-02T04:14:04;98517.09;;;0.19;66.94
53715;BME280;39608;55.630;37.864;2023-02-02T04:19:08;98520.53;;;0.19;66.93
53715;BME280;39608;55.630;37.864;2023-02-02T04:24:13;98512.19;;;0.10;66.83
53715;BME280;39608;55.630;37.864;2023-02-02T04:29:15;98515.41;;;0.12;66.98
53715;BME280;39608;55.630;37.864;2023-02-02T04:34:19;98523.41;;;0.12;66.56
53715;BME280;39608;55.630;37.864;2023-02-02T04:39:20;98518.50;;;0.04;66.95
53715;BME280;39608;55.630;37.864;2023-02-02T04:44:23;98521.19;;;0.04;66.62
53715;BME280;39608;55.630;37.864;2023-02-02T04:49:26;98514.75;;;0.00;66.33
53715;BME280;39608;55.630;37.864;2023-02-02T04:54:28;98515.75;;;-0.06;66.56
53715;BME280;39608;55.630;37.864;2023-02-02T04:59:30;98529.88;;;-0.06;66.39
53715;BME280;39608;55.630;37.864;2023-02-02T05:04:33;98538.19;;;-0.02;66.43
53715;BME280;39608;55.630;37.864;2023-02-02T05:09:35;98533.84;;;-0.08;66.69
53715;BME280;39608;55.630;37.864;2023-02-02T05:14:37;98539.19;;;-0.08;66.72
53715;BME280;39608;55.630;37.864;2023-02-02T05:19:41;98540.53;;;-0.06;66.40
53715;BME280;39608;55.630;37.864;2023-02-02T05:24:43;98544.53;;;-0.08;66.21
53715;BME280;39608;55.630;37.864;2023-02-02T05:29:46;98550.09;;;-0.10;66.54
53715;BME280;39608;55.630;37.864;2023-02-02T05:34:49;98546.38;;;-0.09;66.04
53715;BME280;39608;55.630;37.864;2023-02-02T05:39:51;98542.59;;;-0.13;66.41
53715;BME280;39608;55.630;37.864;2023-02-02T05:44:53;98544.38;;;-0.19;66.19
53715;BME280;39608;55.630;37.864;2023-02-02T05:49:57;98541.22;;;-0.15;66.13
53715;BME280;39608;55.630;37.864;2023-02-02T05:54:59;98544.13;;;-0.17;66.48
53715;BME280;39608;55.630;37.864;2023-02-02T06:00:01;98550.81;;;-0.14;65.92
53715;BME280;39608;55.630;37.864;2023-02-02T06:05:06;98551.94;;;-0.10;66.14
53715;BME280;39608;55.630;37.864;2023-02-02T06:10:09;98561.63;;;-0.04;66.05
53715;BME280;39608;55.630;37.864;2023-02-02T06:15:11;98566.47;;;-0.01;66.30
53715;BME280;39608;55.630;37.864;2023-02-02T06:20:15;98565.44;;;0.05;66.18
53715;BME280;39608;55.630;37.864;2023-02-02T06:25:17;98571.38;;;0.12;66.20
53715;BME280;39608;55.630;37.864;2023-02-02T06:30:19;98571.63;;;0.11;65.69
53715;BME280;39608;55.630;37.864;2023-02-02T06:35:22;98572.22;;;0.13;65.71
53715;BME280;39608;55.630;37.864;2023-02-02T06:40:24;98567.66;;;0.13;65.74
53715;BME280;39608;55.630;37.864;2023-02-02T06:45:28;98556.41;;;0.06;65.61
53715;BME280;39608;55.630;37.864;2023-02-02T06:50:31;98572.13;;;0.30;65.57
53715;BME280;39608;55.630;37.864;2023-02-02T06:55:33;98576.19;;;0.38;65.51
53715;BME280;39608;55.630;37.864;2023-02-02T07:00:35;98579.72;;;0.43;65.38
53715;BME280;39608;55.630;37.864;2023-02-02T07:05:39;98582.75;;;0.52;65.14
53715;BME280;39608;55.630;37.864;2023-02-02T07:10:41;98573.38;;;0.49;65.23
53715;BME280;39608;55.630;37.864;2023-02-02T07:15:44;98584.41;;;0.58;65.00
53715;BME280;39608;55.630;37.864;2023-02-02T07:20:47;98582.69;;;0.74;65.07
53715;BME280;39608;55.630;37.864;2023-02-02T07:25:59;98579.09;;;0.91;64.71
53715;BME280;39608;55.630;37.864;2023-02-02T07:31:11;98558.81;;;0.95;64.14
53715;BME280;39608;55.630;37.864;2023-02-02T07:36:16;98571.13;;;0.96;64.70
53715;BME280;39608;55.630;37.864;2023-02-02T07:41:18;98577.38;;;1.12;64.51
53715;BME280;39608;55.630;37.864;2023-02-02T07:46:21;98593.13;;;1.13;64.14
53715;BME280;39608;55.630;37.864;2023-02-02T07:51:24;98601.66;;;1.10;64.51
53715;BME280;39608;55.630;37.864;2023-02-02T07:56:27;98601.03;;;0.98;64.35
53715;BME280;39608;55.630;37.864;2023-02-02T08:01:29;98595.06;;;0.85;64.58
53715;BME280;39608;55.630;37.864;2023-02-02T08:06:33;98588.16;;;0.90;64.53
53715;BME280;39608;55.630;37.864;2023-02-02T08:11:37;98601.22;;;0.86;64.66
53715;BME280;39608;55.630;37.864;2023-02-02T08:16:39;98604.13;;;0.84;64.74
53715;BME280;39608;55.630;37.864;2023-02-02T08:21:42;98600.41;;;0.85;64.40
53715;BME280;39608;55.630;37.864;2023-02-02T08:26:44;98594.22;;;0.80;64.40
53715;BME280;39608;55.630;37.864;2023-02-02T08:31:46;98580.56;;;0.76;64.59
53715;BME280;39608;55.630;37.864;2023-02-02T08:36:50;98586.50;;;0.83;64.32
53715;BME280;39608;55.630;37.864;2023-02-02T08:41:53;98582.22;;;0.82;64.12
53715;BME280;39608;55.630;37.864;2023-02-02T08:46:55;98591.31;;;0.81;63.88
53715;BME280;39608;55.630;37.864;2023-02-02T08:51:59;98591.06;;;0.88;64.10
53715;BME280;39608;55.630;37.864;2023-02-02T08:57:02;98587.59;;;0.88;63.90
53715;BME280;39608;55.630;37.864;2023-02-02T09:02:04;98583.63;;;0.90;63.92
53715;BME280;39608;55.630;37.864;2023-02-02T09:07:12;98573.84;;;1.01;63.54
53715;BME280;39608;55.630;37.864;2023-02-02T09:12:15;98592.59;;;1.11;63.44
53715;BME280;39608;55.630;37.864;2023-02-02T09:17:17;98581.06;;;1.06;63.20
53715;BME280;39608;55.630;37.864;2023-02-02T09:22:20;98586.75;;;1.14;63.06
53715;BME280;39608;55.630;37.864;2023-02-02T09:27:22;98586.00;;;1.19;63.18
53715;BME280;39608;55.630;37.864;2023-02-02T09:32:25;98594.34;;;1.33;62.62
53715;BME280;39608;55.630;37.864;2023-02-02T09:37:28;98584.03;;;1.47;62.65
53715;BME280;39608;55.630;37.864;2023-02-02T09:42:46;98566.56;;;1.77;62.34
53715;BME280;39608;55.630;37.864;2023-02-02T09:47:54;98566.03;;;1.80;61.98
53715;BME280;39608;55.630;37.864;2023-02-02T09:53:02;98575.44;;;1.93;61.26
53715;BME280;39608;55.630;37.864;2023-02-02T09:58:13;98578.09;;;1.82;61.36
53715;BME280;39608;55.630;37.864;2023-02-02T10:03:20;98575.09;;;1.74;61.36
53715;BME280;39608;55.630;37.864;2023-02-02T10:08:31;98577.81;;;1.84;61.16
53715;BME280;39608;55.630;37.864;2023-02-02T10:13:37;98576.19;;;1.83;61.47
53715;BME280;39608;55.630;37.864;2023-02-02T10:18:47;98568.47;;;1.92;61.14
53715;BME280;39608;55.630;37.864;2023-02-02T10:23:52;98573.81;;;1.86;61.19
53715;BME280;39608;55.630;37.864;2023-02-02T10:29:07;98568.75;;;1.90;61.16
53715;BME280;39608;55.630;37.864;2023-02-02T10:34:16;98555.09;;;1.86;61.29
53715;BME280;39608;55.630;37.864;2023-02-02T10:39:27;98557.78;;;1.86;60.84
53715;BME280;39608;55.630;37.864;2023-02-02T10:44:37;98548.13;;;1.80;59.98
53715;BME280;39608;55.630;37.864;2023-02-02T10:49:43;98552.41;;;1.81;60.26
53715;BME280;39608;55.630;37.864;2023-02-02T10:54:56;98555.69;;;2.04;60.10
53715;BME280;39608;55.630;37.864;2023-02-02T11:00:05;98537.50;;;2.01;59.95
53715;BME280;39608;55.630;37.864;2023-02-02T11:05:13;98565.94;;;2.28;59.64
53715;BME280;39608;55.630;37.864;2023-02-02T11:10:37;98556.28;;;2.27;59.52
53715;BME280;39608;55.630;37.864;2023-02-02T11:15:39;98556.84;;;2.29;59.30
53715;BME280;39608;55.630;37.864;2023-02-02T11:20:42;98553.56;;;2.11;59.45
53715;BME280;39608;55.630;37.864;2023-02-02T11:25:56;98548.25;;;2.16;60.10
53715;BME280;39608;55.630;37.864;2023-02-02T11:30:58;98559.25;;;2.20;59.56
53715;BME280;39608;55.630;37.864;2023-02-02T11:36:02;98545.56;;;2.16;58.99
53715;BME280;39608;55.630;37.864;2023-02-02T11:41:07;98562.19;;;2.23;58.85
53715;BME280;39608;55.630;37.864;2023-02-02T11:46:17;98575.81;;;2.22;58.91
53715;BME280;39608;55.630;37.864;2023-02-02T11:51:22;98574.22;;;2.26;58.99
53715;BME280;39608;55.630;37.864;2023-02-02T11:56:26;98582.59;;;2.45;58.41
53715;BME280;39608;55.630;37.864;2023-02-02T12:01:30;98588.50;;;2.63;58.98
53715;BME280;39608;55.630;37.864;2023-02-02T12:06:35;98585.53;;;2.54;58.52
53715;BME280;39608;55.630;37.864;2023-02-02T12:11:47;98580.94;;;2.39;58.94
53715;BME280;39608;55.630;37.864;2023-02-02T12:17:05;98581.19;;;2.27;58.61
53715;BME280;39608;55.630;37.864;2023-02-02T12:22:20;98596.69;;;2.20;59.28
53715;BME280;39608;55.630;37.864;2023-02-02T12:27:37;98589.69;;;2.14;58.67
53715;BME280;39608;55.630;37.864;2023-02-02T12:33:02;98581.41;;;2.10;59.30
53715;BME280;39608;55.630;37.864;2023-02-02T12:38:14;98589.38;;;2.00;58.34
53715;BME280;39608;55.630;37.864;2023-02-02T12:43:33;98587.47;;;1.90;59.14
53715;BME280;39608;55.630;37.864;2023-02-02T12:48:54;98577.00;;;1.78;59.22
53715;BME280;39608;55.630;37.864;2023-02-02T12:54:15;98593.91;;;1.89;59.01
53715;BME280;39608;55.630;37.864;2023-02-02T12:59:40;98588.84;;;1.98;58.73
53715;BME280;39608;55.630;37.864;2023-02-02T13:04:58;98599.81;;;1.96;58.65
53715;BME280;39608;55.630;37.864;2023-02-02T13:10:11;98593.63;;;1.91;58.97
53715;BME280;39608;55.630;37.864;2023-02-02T13:15:19;98597.53;;;1.73;59.32
53715;BME280;39608;55.630;37.864;2023-02-02T13:20:29;98593.00;;;1.73;59.16
53715;BME280;39608;55.630;37.864;2023-02-02T13:25:43;98587.03;;;1.61;59.42
53715;BME280;39608;55.630;37.864;2023-02-02T13:30:49;98600.13;;;1.57;59.57
53715;BME280;39608;55.630;37.864;2023-02-02T13:35:54;98601.16;;;1.51;59.97
53715;BME280;39608;55.630;37.864;2023-02-02T13:41:04;98589.38;;;1.47;59.52
53715;BME280;39608;55.630;37.864;2023-02-02T13:46:16;98605.97;;;1.49;59.81
53715;BME280;39608;55.630;37.864;2023-02-02T13:51:37;98602.50;;;1.48;59.83
53715;BME280;39608;55.630;37.864;2023-02-02T13:56:48;98606.97;;;1.43;59.93
53715;BME280;39608;55.630;37.864;2023-02-02T14:01:58;98605.66;;;1.40;59.96
53715;BME280;39608;55.630;37.864;2023-02-02T14:07:03;98597.53;;;1.25;60.25
53715;BME280;39608;55.630;37.864;2023-02-02T14:12:07;98607.69;;;1.33;60.35
53715;BME280;39608;55.630;37.864;2023-02-02T14:22:55;98613.28;;;1.26;60.54
53715;BME280;39608;55.630;37.864;2023-02-02T14:27:59;98619.16;;;1.28;60.59
53715;BME280;39608;55.630;37.864;2023-02-02T14:33:24;98636.03;;;1.34;60.75
53715;BME280;39608;55.630;37.864;2023-02-02T14:38:47;98632.78;;;1.27;60.73
53715;BME280;39608;55.630;37.864;2023-02-02T14:43:54;98635.59;;;1.10;60.84
53715;BME280;39608;55.630;37.864;2023-02-02T14:49:11;98635.63;;;1.15;60.73
53715;BME280;39608;55.630;37.864;2023-02-02T14:54:23;98626.88;;;0.92;60.88
53715;BME280;39608;55.630;37.864;2023-02-02T14:59:29;98644.63;;;1.04;60.87
53715;BME280;39608;55.630;37.864;2023-02-02T15:04:32;98641.44;;;1.07;60.89
53715;BME280;39608;55.630;37.864;2023-02-02T15:09:37;98656.16;;;1.09;61.22
53715;BME280;39608;55.630;37.864;2023-02-02T15:14:41;98655.59;;;1.07;61.33
53715;BME280;39608;55.630;37.864;2023-02-02T15:19:49;98652.41;;;1.10;61.09
53715;BME280;39608;55.630;37.864;2023-02-02T15:24:58;98663.66;;;1.12;61.17
53715;BME280;39608;55.630;37.864;2023-02-02T15:30:07;98665.22;;;1.08;61.09
53715;BME280;39608;55.630;37.864;2023-02-02T15:35:16;98658.25;;;1.07;61.54
53715;BME280;39608;55.630;37.864;2023-02-02T15:40:23;98633.31;;;0.96;61.24
53715;BME280;39608;55.630;37.864;2023-02-02T15:45:30;98666.25;;;1.07;61.24
53715;BME280;39608;55.630;37.864;2023-02-02T15:50:34;98654.72;;;1.01;61.34
53715;BME280;39608;55.630;37.864;2023-02-02T15:55:38;98658.69;;;0.94;61.29
53715;BME280;39608;55.630;37.864;2023-02-02T16:00:40;98677.91;;;0.96;61.37
53715;BME280;39608;55.630;37.864;2023-02-02T16:05:45;98670.41;;;0.93;61.46
53715;BME280;39608;55.630;37.864;2023-02-02T16:10:49;98675.75;;;0.93;61.48
53715;BME280;39608;55.630;37.864;2023-02-02T16:16:03;98685.59;;;0.92;61.73
53715;BME280;39608;55.630;37.864;2023-02-02T16:21:22;98668.44;;;0.83;61.65
53715;BME280;39608;55.630;37.864;2023-02-02T16:26:28;98687.47;;;0.92;61.81
53715;BME280;39608;55.630;37.864;2023-02-02T16:31:31;98693.88;;;0.91;61.66
53715;BME280;39608;55.630;37.864;2023-02-02T16:36:33;98692.75;;;0.87;61.81
53715;BME280;39608;55.630;37.864;2023-02-02T16:41:40;98701.59;;;0.87;62.25
53715;BME280;39608;55.630;37.864;2023-02-02T16:46:43;98697.22;;;0.81;61.79
53715;BME280;39608;55.630;37.864;2023-02-02T16:51:47;98705.94;;;0.71;61.88
53715;BME280;39608;55.630;37.864;2023-02-02T16:57:00;98710.28;;;0.77;61.80
53715;BME280;39608;55.630;37.864;2023-02-02T17:02:19;98713.47;;;0.74;62.05
53715;BME280;39608;55.630;37.864;2023-02-02T17:07:24;98731.50;;;0.67;62.00
53715;BME280;39608;55.630;37.864;2023-02-02T17:12:29;98725.69;;;0.70;62.47
53715;BME280;39608;55.630;37.864;2023-02-02T17:17:31;98722.78;;;0.72;62.19
53715;BME280;39608;55.630;37.864;2023-02-02T17:22:37;98726.31;;;0.77;62.37
53715;BME280;39608;55.630;37.864;2023-02-02T17:27:42;98730.44;;;0.90;61.75
53715;BME280;39608;55.630;37.864;2023-02-02T17:32:44;98743.78;;;0.68;62.23
53715;BME280;39608;55.630;37.864;2023-02-02T17:37:46;98736.03;;;0.66;62.09
53715;BME280;39608;55.630;37.864;2023-02-02T17:42:51;98728.47;;;0.58;62.41
53715;BME280;39608;55.630;37.864;2023-02-02T17:47:53;98743.19;;;0.61;62.57
53715;BME280;39608;55.630;37.864;2023-02-02T17:52:56;98739.06;;;0.53;62.66
53715;BME280;39608;55.630;37.864;2023-02-02T17:57:59;98740.44;;;0.56;62.63
53715;BME280;39608;55.630;37.864;2023-02-02T18:03:08;98731.88;;;0.54;62.81
53715;BME280;39608;55.630;37.864;2023-02-02T18:08:12;98735.28;;;0.49;62.62
53715;BME280;39608;55.630;37.864;2023-02-02T18:13:17;98732.69;;;0.54;62.97
53715;BME280;39608;55.630;37.864;2023-02-02T18:18:20;98736.97;;;0.55;63.01
53715;BME280;39608;55.630;37.864;2023-02-02T18:23:22;98724.06;;;0.47;62.40
53715;BME280;39608;55.630;37.864;2023-02-02T18:28:25;98742.31;;;0.55;62.78
53715;BME280;39608;55.630;37.864;2023-02-02T18:33:27;98751.72;;;0.63;62.61
53715;BME280;39608;55.630;37.864;2023-02-02T18:38:29;98752.47;;;0.58;62.92
53715;BME280;39608;55.630;37.864;2023-02-02T18:43:33;98752.81;;;0.62;62.84
53715;BME280;39608;55.630;37.864;2023-02-02T18:48:35;98745.53;;;0.57;62.67
53715;BME280;39608;55.630;37.864;2023-02-02T18:53:37;98754.53;;;0.51;62.87
53715;BME280;39608;55.630;37.864;2023-02-02T18:58:40;98761.75;;;0.50;63.21
53715;BME280;39608;55.630;37.864;2023-02-02T19:03:47;98748.41;;;0.50;63.20
53715;BME280;39608;55.630;37.864;2023-02-02T19:08:49;98757.94;;;0.46;63.04
53715;BME280;39608;55.630;37.864;2023-02-02T19:13:54;98761.09;;;0.43;63.38
53715;BME280;39608;55.630;37.864;2023-02-02T19:18:57;98763.22;;;0.41;63.88
53715;BME280;39608;55.630;37.864;2023-02-02T19:24:01;98768.28;;;0.43;63.60
53715;BME280;39608;55.630;37.864;2023-02-02T19:29:13;98764.34;;;0.45;64.28
53715;BME280;39608;55.630;37.864;2023-02-02T19:34:19;98768.97;;;0.33;64.63
53715;BME280;39608;55.630;37.864;2023-02-02T19:39:27;98749.09;;;0.24;64.90
53715;BME280;39608;55.630;37.864;2023-02-02T19:44:32;98762.22;;;0.25;64.87
53715;BME280;39608;55.630;37.864;2023-02-02T19:49:35;98765.59;;;0.21;65.16
53715;BME280;39608;55.630;37.864;2023-02-02T19:54:56;98761.78;;;0.16;64.78
53715;BME280;39608;55.630;37.864;2023-02-02T20:00:05;98763.97;;;0.20;64.78
53715;BME280;39608;55.630;37.864;2023-02-02T20:05:20;98763.16;;;0.19;65.64
53715;BME280;39608;55.630;37.864;2023-02-02T20:10:24;98763.16;;;0.19;65.27
53715;BME280;39608;55.630;37.864;2023-02-02T20:15:31;98768.00;;;0.22;65.46
53715;BME280;39608;55.630;37.864;2023-02-02T20:20:37;98769.88;;;0.22;65.70
53715;BME280;39608;55.630;37.864;2023-02-02T20:25:40;98755.59;;;0.11;65.42
53715;BME280;39608;55.630;37.864;2023-02-02T20:30:48;98757.13;;;0.07;65.70
53715;BME280;39608;55.630;37.864;2023-02-02T20:35:50;98775.06;;;0.11;65.39
53715;BME280;39608;55.630;37.864;2023-02-02T20:40:52;98773.44;;;0.10;65.15
53715;BME280;39608;55.630;37.864;2023-02-02T20:45:56;98782.81;;;0.13;65.28
53715;BME280;39608;55.630;37.864;2023-02-02T20:50:58;98779.56;;;0.11;65.07
53715;BME280;39608;55.630;37.864;2023-02-02T20:56:00;98769.41;;;0.08;65.15
53715;BME280;39608;55.630;37.864;2023-02-02T21:01:04;98783.06;;;0.11;65.11
53715;BME280;39608;55.630;37.864;2023-02-02T21:06:06;98775.78;;;0.07;65.25
53715;BME280;39608;55.630;37.864;2023-02-02T21:11:09;98772.72;;;-0.02;65.46
53715;BME280;39608;55.630;37.864;2023-02-02T21:16:13;98778.31;;;-0.04;65.41
53715;BME280;39608;55.630;37.864;2023-02-02T21:21:15;98773.13;;;-0.10;65.46
53715;BME280;39608;55.630;37.864;2023-02-02T21:26:20;98776.28;;;-0.13;66.04
53715;BME280;39608;55.630;37.864;2023-02-02T21:31:25;98774.03;;;-0.05;65.45
53715;BME280;39608;55.630;37.864;2023-02-02T21:36:30;98780.63;;;-0.07;65.71
53715;BME280;39608;55.630;37.864;2023-02-02T21:41:32;98791.88;;;-0.05;65.73
53715;BME280;39608;55.630;37.864;2023-02-02T21:46:37;98788.16;;;-0.04;65.75
53715;BME280;39608;55.630;37.864;2023-02-02T21:51:39;98792.91;;;-0.06;65.53
53715;BME280;39608;55.630;37.864;2023-02-02T21:56:41;98784.63;;;-0.10;65.74
53715;BME280;39608;55.630;37.864;2023-02-02T22:01:45;98795.09;;;-0.03;65.79
53715;BME280;39608;55.630;37.864;2023-02-02T22:06:49;98782.50;;;-0.08;65.73
53715;BME280;39608;55.630;37.864;2023-02-02T22:11:54;98789.53;;;-0.02;66.12
53715;BME280;39608;55.630;37.864;2023-02-02T22:17:00;98790.41;;;0.04;65.94
53715;BME280;39608;55.630;37.864;2023-02-02T22:22:17;98790.56;;;0.14;65.63
53715;BME280;39608;55.630;37.864;2023-02-02T22:27:22;98782.41;;;0.04;66.07
53715;BME280;39608;55.630;37.864;2023-02-02T22:32:26;98785.06;;;0.04;65.88
53715;BME280;39608;55.630;37.864;2023-02-02T22:37:28;98786.38;;;0.02;65.93
53715;BME280;39608;55.630;37.864;2023-02-02T22:42:30;98782.91;;;0.01;66.23
53715;BME280;39608;55.630;37.864;2023-02-02T22:47:33;98793.66;;;0.06;66.01
53715;BME280;39608;55.630;37.864;2023-02-02T22:52:35;98790.41;;;0.04;66.12
53715;BME280;39608;55.630;37.864;2023-02-02T22:57:38;98786.94;;;0.04;66.13
53715;BME280;39608;55.630;37.864;2023-02-02T23:02:42;98791.22;;;0.05;66.16
53715;BME280;39608;55.630;37.864;2023-02-02T23:07:44;98793.66;;;0.06;66.40
53715;BME280;39608;55.630;37.864;2023-02-02T23:12:46;98793.94;;;0.10;66.07
53715;BME280;39608;55.630;37.864;2023-02-02T23:17:50;98800.50;;;0.19;66.12
53715;BME280;39608;55.630;37.864;2023-02-02T23:22:53;98794.03;;;0.15;66.10
53715;BME280;39608;55.630;37.864;2023-02-02T23:27:55;98787.09;;;0.14;66.23
53715;BME280;39608;55.630;37.864;2023-02-02T23:33:03;98791.22;;;0.22;66.49
53715;BME280;39608;55.630;37.864;2023-02-02T23:38:05;98790.41;;;0.21;66.50
53715;BME280;39608;55.630;37.864;2023-02-02T23:43:07;98784.25;;;0.21;66.33
53715;BME280;39608;55.630;37.864;2023-02-02T23:48:10;98787.25;;;0.24;66.19
53715;BME280;39608;55.630;37.864;2023-02-02T23:53:12;98791.22;;;0.22;66.34
53715;BME280;39608;55.630;37.864;2023-02-02T23:58:15;98784.34;;;0.26;66.65
